createdAt,value
2023-02-12T00:00:06.629Z,3.60
2023-02-12T00:03:01.671Z,3.62
2023-02-12T00:05:48.018Z,3.80
2023-02-12T00:08:34.377Z,3.48
2023-02-12T00:11:23.685Z,3.71
2023-02-12T00:14:10.193Z,3.71
2023-02-12T00:16:56.610Z,3.50
2023-02-12T00:19:43.161Z,3.54
2023-02-12T00:22:29.583Z,3.60
2023-02-12T00:25:17.116Z,3.68
2023-02-12T00:28:03.802Z,3.46
2023-02-12T00:30:50.492Z,3.20
2023-02-12T00:33:37.200Z,3.48
2023-02-12T00:36:25.434Z,3.34
2023-02-12T00:39:12.311Z,3.65
2023-02-12T00:41:59.608Z,3.35
2023-02-12T00:44:45.855Z,3.59
2023-02-12T00:47:32.193Z,3.51
2023-02-12T00:50:18.637Z,3.49
2023-02-12T00:53:04.950Z,3.58
2023-02-12T00:55:51.534Z,3.80
2023-02-12T00:58:37.897Z,3.61
2023-02-12T01:01:26.432Z,3.54
2023-02-12T01:04:13.114Z,3.49
2023-02-12T01:06:59.587Z,3.33
2023-02-12T01:09:45.868Z,3.45
2023-02-12T01:12:32.192Z,3.51
2023-02-12T01:15:19.238Z,3.49
2023-02-12T01:18:05.513Z,3.57
2023-02-12T01:20:51.676Z,3.50
2023-02-12T01:23:37.923Z,3.38
2023-02-12T01:26:24.890Z,3.47
2023-02-12T01:29:11.132Z,3.21
2023-02-12T01:31:57.553Z,3.46
2023-02-12T01:34:43.989Z,3.49
2023-02-12T01:37:30.286Z,3.23
2023-02-12T01:40:17.863Z,3.26
2023-02-12T01:43:07.301Z,3.01
2023-02-12T01:45:54.280Z,3.40
2023-02-12T01:48:45.134Z,3.42
2023-02-12T01:51:33.070Z,3.42
2023-02-12T01:54:25.721Z,3.34
2023-02-12T01:57:14.260Z,3.45
2023-02-12T02:00:03.539Z,3.43
2023-02-12T02:03:02.092Z,3.18
2023-02-12T02:05:48.448Z,3.44
2023-02-12T02:08:36.063Z,3.13
2023-02-12T02:11:41.520Z,3.32
2023-02-12T02:14:34.737Z,3.35
2023-02-12T02:17:33.736Z,3.32
2023-02-12T02:20:59.374Z,3.42
2023-02-12T02:24:02.171Z,3.33
2023-02-12T02:27:11.669Z,3.11
2023-02-12T02:30:26.585Z,3.57
2023-02-12T02:33:18.555Z,3.07
2023-02-12T02:36:17.768Z,3.34
2023-02-12T02:39:23.287Z,3.35
2023-02-12T02:42:22.025Z,3.33
2023-02-12T02:45:14.840Z,3.01
2023-02-12T02:48:08.289Z,3.32
2023-02-12T02:51:01.532Z,3.22
2023-02-12T02:54:01.709Z,3.02
2023-02-12T02:56:55.385Z,3.19
2023-02-12T02:59:50.489Z,3.12
2023-02-12T03:02:42.475Z,3.23
2023-02-12T03:05:50.718Z,3.40
2023-02-12T03:08:44.479Z,3.40
2023-02-12T03:11:33.655Z,3.36
2023-02-12T03:14:33.408Z,3.27
2023-02-12T03:17:32.688Z,3.09
2023-02-12T03:20:24.053Z,3.11
2023-02-12T03:23:16.829Z,2.99
2023-02-12T03:26:12.813Z,3.25
2023-02-12T03:28:59.390Z,3.19
2023-02-12T03:32:12.205Z,3.38
2023-02-12T03:35:04.524Z,3.44
2023-02-12T03:38:03.297Z,3.55
2023-02-12T03:41:04.864Z,3.54
2023-02-12T03:43:55.754Z,3.41
2023-02-12T03:46:57.792Z,3.72
2023-02-12T03:49:55.874Z,3.74
2023-02-12T03:52:43.549Z,3.50
2023-02-12T03:55:32.311Z,3.33
2023-02-12T03:58:23.402Z,3.45
2023-02-12T04:01:11.210Z,3.21
2023-02-12T04:03:58.603Z,3.42
2023-02-12T04:06:47.880Z,3.64
2023-02-12T04:09:34.223Z,3.37
2023-02-12T04:12:29.311Z,3.55
2023-02-12T04:15:41.913Z,3.27
2023-02-12T04:18:43.337Z,3.12
2023-02-12T04:21:29.471Z,3.28
2023-02-12T04:24:30.953Z,3.20
2023-02-12T04:27:25.768Z,3.37
2023-02-12T04:30:32.047Z,3.23
2023-02-12T04:33:22.790Z,3.25
2023-02-12T04:36:16.789Z,3.41
2023-02-12T04:39:11.230Z,3.07
2023-02-12T04:42:02.026Z,3.34
2023-02-12T04:44:48.496Z,3.22
2023-02-12T04:47:34.796Z,3.18
2023-02-12T04:50:21.491Z,3.24
2023-02-12T04:53:08.646Z,3.41
2023-02-12T04:55:55.619Z,2.97
2023-02-12T04:58:42.401Z,3.06
2023-02-12T05:01:31.260Z,2.89
2023-02-12T05:04:18.611Z,3.18
2023-02-12T05:07:04.914Z,3.02
2023-02-12T05:09:51.423Z,3.07
2023-02-12T05:12:37.859Z,2.96
2023-02-12T05:15:24.154Z,3.12
2023-02-12T05:18:10.300Z,2.76
2023-02-12T05:20:58.494Z,2.98
2023-02-12T05:23:44.760Z,2.93
2023-02-12T05:26:30.854Z,2.80
2023-02-12T05:29:18.475Z,2.92
2023-02-12T05:32:06.859Z,3.00
2023-02-12T05:34:53.236Z,3.00
2023-02-12T05:37:39.908Z,2.85
2023-02-12T05:40:26.319Z,2.89
2023-02-12T05:43:13.083Z,2.97
2023-02-12T05:46:00.851Z,3.08
2023-02-12T05:48:48.387Z,3.00
2023-02-12T05:51:35.011Z,3.03
2023-02-12T05:54:21.210Z,2.95
2023-02-12T05:57:07.528Z,2.92
2023-02-12T05:59:54.196Z,3.02
2023-02-12T06:02:40.738Z,3.14
2023-02-12T06:05:27.329Z,2.80
2023-02-12T06:08:13.444Z,2.94
2023-02-12T06:11:02.364Z,3.14
2023-02-12T06:13:49.090Z,3.28
2023-02-12T06:16:35.651Z,2.85
2023-02-12T06:19:22.363Z,2.80
2023-02-12T06:22:08.562Z,3.08
2023-02-12T06:24:54.724Z,2.98
2023-02-12T06:27:41.310Z,3.02
2023-02-12T06:30:27.720Z,3.05
2023-02-12T06:33:14.147Z,3.09
2023-02-12T06:36:04.413Z,3.12
2023-02-12T06:38:51.194Z,3.37
2023-02-12T06:41:37.807Z,3.00
2023-02-12T06:44:24.150Z,3.60
2023-02-12T06:47:10.563Z,3.66
2023-02-12T06:49:57.227Z,3.47
2023-02-12T06:52:43.730Z,3.36
2023-02-12T06:55:30.071Z,3.20
2023-02-12T06:58:16.335Z,3.58
2023-02-12T07:01:29.799Z,3.84
2023-02-12T07:04:16.645Z,3.73
2023-02-12T07:07:04.285Z,3.57
2023-02-12T07:09:50.683Z,3.69
2023-02-12T07:12:37.091Z,3.59
2023-02-12T07:15:23.619Z,3.40
2023-02-12T07:18:10.137Z,3.97
2023-02-12T07:20:56.819Z,3.73
2023-02-12T07:23:50.856Z,3.75
2023-02-12T07:26:38.226Z,3.76
2023-02-12T07:29:24.528Z,3.82
2023-02-12T07:32:11.076Z,4.20
2023-02-12T07:34:57.565Z,4.11
2023-02-12T07:37:44.027Z,4.27
2023-02-12T07:40:30.239Z,4.28
2023-02-12T07:43:16.650Z,4.37
2023-02-12T07:46:14.738Z,4.40
2023-02-12T07:49:04.325Z,4.51
2023-02-12T07:51:50.657Z,4.54
2023-02-12T07:54:36.961Z,4.44
2023-02-12T07:57:23.190Z,4.76
2023-02-12T08:00:10.765Z,4.72
2023-02-12T08:02:59.660Z,4.71
2023-02-12T08:05:46.058Z,4.71
2023-02-12T08:08:32.278Z,4.95
2023-02-12T08:11:18.959Z,4.97
2023-02-12T08:14:05.590Z,5.14
2023-02-12T08:16:52.477Z,5.28
2023-02-12T08:19:40.991Z,5.34
2023-02-12T08:22:27.476Z,5.56
2023-02-12T08:25:13.766Z,5.73
2023-02-12T08:28:00.269Z,5.39
2023-02-12T08:30:46.707Z,5.66
2023-02-12T08:33:33.259Z,6.05
2023-02-12T08:36:22.120Z,6.02
2023-02-12T08:39:08.654Z,5.81
2023-02-12T08:41:56.530Z,5.84
2023-02-12T08:44:43.007Z,5.97
2023-02-12T08:47:31.307Z,5.86
2023-02-12T08:50:17.803Z,5.93
2023-02-12T08:53:03.905Z,6.37
2023-02-12T08:55:50.641Z,6.22
2023-02-12T08:58:37.747Z,6.26
2023-02-12T09:01:26.084Z,6.70
2023-02-12T09:04:18.375Z,6.71
2023-02-12T09:07:04.970Z,6.59
2023-02-12T09:09:51.239Z,6.61
2023-02-12T09:12:37.528Z,6.47
2023-02-12T09:15:23.994Z,6.48
2023-02-12T09:18:11.820Z,6.53
2023-02-12T09:21:06.847Z,6.52
2023-02-12T09:23:53.533Z,6.90
2023-02-12T09:26:40.350Z,6.95
2023-02-12T09:29:26.417Z,6.57
2023-02-12T09:32:13.020Z,6.83
2023-02-12T09:34:59.474Z,6.99
2023-02-12T09:37:46.075Z,7.01
2023-02-12T09:40:50.989Z,7.02
2023-02-12T09:43:48.232Z,7.20
2023-02-12T09:46:53.784Z,7.47
2023-02-12T09:50:06.318Z,7.63
2023-02-12T09:52:54.656Z,7.53
2023-02-12T09:55:41.276Z,7.82
2023-02-12T09:58:41.400Z,7.79
2023-02-12T10:01:28.390Z,7.73
2023-02-12T10:04:15.160Z,7.99
2023-02-12T10:07:05.077Z,8.30
2023-02-12T10:10:17.863Z,8.26
2023-02-12T10:13:13.918Z,8.32
2023-02-12T10:16:32.346Z,8.42
2023-02-12T10:20:01.091Z,8.52
2023-02-12T10:22:56.487Z,8.56
2023-02-12T10:26:01.250Z,8.88
2023-02-12T10:28:48.107Z,8.50
2023-02-12T10:31:39.599Z,8.45
2023-02-12T10:34:32.194Z,8.71
2023-02-12T10:37:54.054Z,8.50
2023-02-12T10:40:44.424Z,8.44
2023-02-12T10:43:31.416Z,8.09
2023-02-12T10:46:17.971Z,8.03
2023-02-12T10:49:06.430Z,8.30
2023-02-12T10:52:14.323Z,8.50
2023-02-12T10:55:01.308Z,8.40
2023-02-12T10:57:47.663Z,8.44
2023-02-12T11:00:37.491Z,8.66
2023-02-12T11:03:28.711Z,8.71
2023-02-12T11:06:19.967Z,8.66
2023-02-12T11:09:06.362Z,8.73
2023-02-12T11:11:53.227Z,8.78
2023-02-12T11:14:39.541Z,8.78
2023-02-12T11:17:33.652Z,8.67
2023-02-12T11:20:24.720Z,8.57
2023-02-12T11:23:29.702Z,8.65
2023-02-12T11:26:19.043Z,8.36
2023-02-12T11:29:24.442Z,8.61
2023-02-12T11:32:19.700Z,8.73
2023-02-12T11:35:18.548Z,9.02
2023-02-12T11:38:05.198Z,8.65
2023-02-12T11:40:57.144Z,8.90
2023-02-12T11:43:44.944Z,8.95
2023-02-12T11:46:31.377Z,8.90
2023-02-12T11:49:23.812Z,8.76
2023-02-12T11:52:20.975Z,8.38
2023-02-12T11:55:23.607Z,8.62
2023-02-12T11:58:13.113Z,9.12
2023-02-12T12:01:05.817Z,9.12
2023-02-12T12:04:14.103Z,9.16
2023-02-12T12:07:13.944Z,9.04
2023-02-12T12:10:07.857Z,9.28
2023-02-12T12:12:59.611Z,8.86
2023-02-12T12:16:11.571Z,9.06
2023-02-12T12:19:40.501Z,9.16
2023-02-12T12:22:54.700Z,9.58
2023-02-12T12:25:49.412Z,9.78
2023-02-12T12:28:58.874Z,9.93
2023-02-12T12:31:52.562Z,9.54
2023-02-12T12:34:39.208Z,9.61
2023-02-12T12:37:38.598Z,9.63
2023-02-12T12:40:24.950Z,9.31
2023-02-12T12:43:20.879Z,9.35
2023-02-12T12:46:25.860Z,9.23
2023-02-12T12:49:31.980Z,9.09
2023-02-12T12:52:38.908Z,9.18
2023-02-12T12:55:56.095Z,9.28
2023-02-12T12:58:55.521Z,9.07
2023-02-12T13:01:47.827Z,9.16
2023-02-12T13:05:04.533Z,9.37
2023-02-12T13:07:57.533Z,9.37
2023-02-12T13:11:12.148Z,8.99
2023-02-12T13:14:22.826Z,8.78
2023-02-12T13:17:37.085Z,8.80
2023-02-12T13:20:38.026Z,9.25
2023-02-12T13:23:53.553Z,9.38
2023-02-12T13:26:54.444Z,9.10
2023-02-12T13:29:47.833Z,9.41
2023-02-12T13:32:50.672Z,9.07
2023-02-12T13:35:43.213Z,8.92
2023-02-12T13:38:56.267Z,8.94
2023-02-12T13:41:48.582Z,8.82
2023-02-12T13:44:47.325Z,9.09
2023-02-12T13:47:52.201Z,9.21
2023-02-12T13:50:44.957Z,9.63
2023-02-12T13:53:49.452Z,9.75
2023-02-12T13:57:00.121Z,9.60
2023-02-12T13:59:54.699Z,9.04
2023-02-12T14:02:43.686Z,9.28
2023-02-12T14:05:32.271Z,9.09
2023-02-12T14:08:37.596Z,9.32
2023-02-12T14:11:26.100Z,8.91
2023-02-12T14:14:13.234Z,9.11
2023-02-12T14:17:27.984Z,9.47
2023-02-12T14:20:23.265Z,9.49
2023-02-12T14:23:28.948Z,9.35
2023-02-12T14:26:16.838Z,9.49
2023-02-12T14:29:06.785Z,9.34
2023-02-12T14:31:53.668Z,8.90
2023-02-12T14:34:40.450Z,9.08
2023-02-12T14:37:37.524Z,9.02
2023-02-12T14:40:51.005Z,9.13
2023-02-12T14:43:57.441Z,8.73
2023-02-12T14:46:53.937Z,8.86
2023-02-12T14:49:52.046Z,8.86
2023-02-12T14:52:41.025Z,8.84
2023-02-12T14:55:34.163Z,8.74
2023-02-12T14:58:24.407Z,8.74
2023-02-12T15:01:11.494Z,8.80
2023-02-12T15:04:01.077Z,8.84
2023-02-12T15:07:08.149Z,8.94
2023-02-12T15:10:07.416Z,8.68
2023-02-12T15:13:23.475Z,8.81
2023-02-12T15:16:37.271Z,8.67
2023-02-12T15:19:34.146Z,8.55
2023-02-12T15:22:33.964Z,8.65
2023-02-12T15:25:30.860Z,8.57
2023-02-12T15:28:24.158Z,8.51
2023-02-12T15:31:14.861Z,8.27
2023-02-12T15:34:03.664Z,8.41
2023-02-12T15:36:50.906Z,8.23
2023-02-12T15:39:44.155Z,8.20
2023-02-12T15:42:30.713Z,8.30
2023-02-12T15:45:26.830Z,8.15
2023-02-12T15:48:18.589Z,7.99
2023-02-12T15:51:11.050Z,8.03
2023-02-12T15:53:59.579Z,7.95
2023-02-12T15:56:46.292Z,7.81
2023-02-12T15:59:32.648Z,7.72
2023-02-12T16:02:28.374Z,7.34
2023-02-12T16:05:16.842Z,7.55
2023-02-12T16:08:03.502Z,7.42
2023-02-12T16:10:53.670Z,7.39
2023-02-12T16:13:47.468Z,7.19
2023-02-12T16:16:46.042Z,7.07
2023-02-12T16:19:33.022Z,6.74
2023-02-12T16:22:28.807Z,6.81
2023-02-12T16:25:24.536Z,6.70
2023-02-12T16:28:19.937Z,6.52
2023-02-12T16:31:12.539Z,6.37
2023-02-12T16:33:59.365Z,6.19
2023-02-12T16:36:47.199Z,6.09
2023-02-12T16:39:59.678Z,5.87
2023-02-12T16:42:48.935Z,5.73
2023-02-12T16:45:36.954Z,5.66
2023-02-12T16:48:25.238Z,5.40
2023-02-12T16:51:32.422Z,5.39
2023-02-12T16:54:35.414Z,5.14
2023-02-12T16:57:21.782Z,5.09
2023-02-12T17:09:19.504Z,4.48
2023-02-12T17:12:06.049Z,4.35
2023-02-12T17:14:52.976Z,4.23
2023-02-12T17:17:39.418Z,4.00
2023-02-12T17:20:25.684Z,4.02
2023-02-12T17:23:12.806Z,3.66
2023-02-12T17:25:59.407Z,3.70
2023-02-12T17:28:45.907Z,3.46
2023-02-12T17:31:33.360Z,3.65
2023-02-12T17:34:20.415Z,3.11
2023-02-12T17:37:07.134Z,3.49
2023-02-12T17:39:53.376Z,3.43
2023-02-12T17:42:39.845Z,3.37
2023-02-12T17:45:26.070Z,3.60
2023-02-12T17:48:13.971Z,3.32
2023-02-12T17:51:00.446Z,3.29
2023-02-12T17:53:47.614Z,3.24
2023-02-12T17:56:34.802Z,3.41
2023-02-12T17:59:21.023Z,3.33
2023-02-12T18:02:08.030Z,3.16
2023-02-12T18:04:54.326Z,2.75
2023-02-12T18:07:40.609Z,2.93
2023-02-12T18:10:26.867Z,2.94
2023-02-12T18:13:14.040Z,2.71
2023-02-12T18:16:00.228Z,2.90
2023-02-12T18:18:46.633Z,2.71
2023-02-12T18:21:34.942Z,2.70
2023-02-12T18:24:21.486Z,2.57
2023-02-12T18:27:07.820Z,2.58
2023-02-12T18:29:54.617Z,2.41
2023-02-12T18:32:40.800Z,2.36
2023-02-12T18:35:26.993Z,2.57
2023-02-12T18:38:13.645Z,2.28
2023-02-12T18:41:00.484Z,2.14
2023-02-12T18:43:47.300Z,2.41
2023-02-12T18:46:33.719Z,2.09
2023-02-12T18:49:19.902Z,1.92
2023-02-12T18:52:06.657Z,2.10
2023-02-12T18:54:53.142Z,1.74
2023-02-12T18:57:39.652Z,1.99
2023-02-12T19:00:26.405Z,1.60
2023-02-12T19:03:12.656Z,1.64
2023-02-12T19:06:04.000Z,1.49
2023-02-12T19:08:55.602Z,1.60
2023-02-12T19:11:43.494Z,1.37
2023-02-12T19:14:29.901Z,1.39
2023-02-12T19:17:16.062Z,1.31
2023-02-12T19:20:02.328Z,1.24
2023-02-12T19:22:48.801Z,1.20
2023-02-12T19:25:42.532Z,1.10
2023-02-12T19:28:29.012Z,0.90
2023-02-12T19:31:25.725Z,0.99
2023-02-12T19:34:16.935Z,0.89
2023-02-12T19:37:03.009Z,0.78
2023-02-12T19:39:49.210Z,0.71
2023-02-12T19:42:35.541Z,0.65
2023-02-12T19:45:21.731Z,0.64
2023-02-12T19:48:07.968Z,0.52
2023-02-12T19:50:54.928Z,0.46
2023-02-12T19:53:42.000Z,0.51
2023-02-12T19:56:28.898Z,0.39
2023-02-12T19:59:18.542Z,0.35
2023-02-12T20:02:04.890Z,0.07
2023-02-12T20:04:51.124Z,-0.01
2023-02-12T20:07:37.268Z,-0.10
2023-02-12T20:10:23.941Z,0.10
2023-02-12T20:13:10.997Z,-0.07
2023-02-12T20:16:02.725Z,-0.10
2023-02-12T20:18:53.297Z,-0.26
2023-02-12T20:21:39.780Z,-0.20
2023-02-12T20:24:30.377Z,-0.22
2023-02-12T20:27:16.811Z,-0.31
2023-02-12T20:30:04.228Z,-0.40
2023-02-12T20:32:50.518Z,-0.56
2023-02-12T20:35:37.248Z,-0.66
2023-02-12T20:38:23.487Z,-0.62
2023-02-12T20:41:10.576Z,-0.50
2023-02-12T20:44:00.682Z,-0.44
2023-02-12T20:46:49.451Z,-0.76
2023-02-12T20:49:37.497Z,-0.51
2023-02-12T20:52:24.500Z,-0.68
2023-02-12T20:55:11.166Z,-0.51
2023-02-12T20:57:57.654Z,-0.81
2023-02-12T21:00:44.082Z,-0.67
2023-02-12T21:03:30.417Z,-0.64
2023-02-12T21:06:18.158Z,-0.60
2023-02-12T21:09:04.759Z,-0.87
2023-02-12T21:11:51.064Z,-0.62
2023-02-12T21:14:37.468Z,-0.88
2023-02-12T21:17:24.692Z,-1.00
2023-02-12T21:20:11.341Z,-0.96
2023-02-12T21:22:58.644Z,-1.05
2023-02-12T21:25:45.222Z,-0.87
2023-02-12T21:28:35.030Z,-0.75
2023-02-12T21:31:24.121Z,-1.08
2023-02-12T21:34:17.019Z,-0.78
2023-02-12T21:37:03.244Z,-1.13
2023-02-12T21:39:49.475Z,-1.12
2023-02-12T21:42:36.146Z,-0.97
2023-02-12T21:45:22.692Z,-1.27
2023-02-12T21:48:09.341Z,-1.08
2023-02-12T21:50:56.168Z,-1.33
2023-02-12T21:53:42.681Z,-1.17
2023-02-12T21:56:29.844Z,-1.14
2023-02-12T21:59:17.146Z,-1.17
2023-02-12T22:02:03.485Z,-1.30
2023-02-12T22:04:49.883Z,-1.20
2023-02-12T22:07:36.192Z,-1.47
2023-02-12T22:10:22.408Z,-1.47
2023-02-12T22:13:09.053Z,-1.33
2023-02-12T22:15:55.743Z,-1.52
2023-02-12T22:18:43.345Z,-1.50
2023-02-12T22:21:32.757Z,-1.53
2023-02-12T22:24:19.729Z,-1.65
2023-02-12T22:27:06.375Z,-1.89
2023-02-12T22:29:52.967Z,-1.54
2023-02-12T22:32:39.140Z,-1.65
2023-02-12T22:35:25.305Z,-1.56
2023-02-12T22:38:11.820Z,-1.53
2023-02-12T22:40:58.685Z,-1.60
2023-02-12T22:43:45.278Z,-1.73
2023-02-12T22:46:33.101Z,-1.66
2023-02-12T22:49:19.365Z,-1.71
2023-02-12T22:52:05.895Z,-2.03
2023-02-12T22:54:52.153Z,-1.78
2023-02-12T22:57:38.616Z,-2.08
2023-02-12T23:00:24.935Z,-2.03
2023-02-12T23:03:11.448Z,-2.13
2023-02-12T23:06:01.639Z,-2.06
2023-02-12T23:08:53.069Z,-2.07
2023-02-12T23:11:39.683Z,-2.29
2023-02-12T23:14:26.248Z,-2.11
2023-02-12T23:17:12.487Z,-1.86
2023-02-12T23:19:59.128Z,-1.87
2023-02-12T23:22:45.437Z,-1.90
2023-02-12T23:25:31.703Z,-2.09
2023-02-12T23:28:17.976Z,-2.05
2023-02-12T23:31:04.726Z,-2.12
2023-02-12T23:33:51.506Z,-2.24
2023-02-12T23:36:37.961Z,-2.17
2023-02-12T23:39:24.293Z,-2.19
2023-02-12T23:42:10.460Z,-2.51
2023-02-12T23:44:57.622Z,-2.11
2023-02-12T23:47:43.861Z,-2.11
2023-02-12T23:50:30.447Z,-1.96
2023-02-12T23:53:17.749Z,-2.35
2023-02-12T23:56:04.041Z,-2.42
2023-02-12T23:58:50.479Z,-2.13
